Time;durP1;ratioP1;P1;durP2;ratioP2;P2;SDS_P1;SDS_P2;PMS_P1;PMS_P2;Temp;Humidity;BMP_temperature;BMP_pressure;BME280_temperature;BME280_humidity;BME280_pressure;Samples;Min_cycle;Max_cycle;Signal;HPM_P1;HPM_P2
2023/07/04 00:22:52;380993.00;1.27;657.13;0.00;0.00;0.62;;;;;22.00;1.00;;;;;;2507630;55;3669;31
2023/07/04 00:40:19;255222.00;0.85;440.93;0.00;0.00;0.62;;;;;22.50;1.00;;;;;;2266057;61;1049;-90
2023/07/04 02:42:18;262486.00;0.87;453.42;0.00;0.00;0.62;;;;;20.60;1.90;;;;;;1662306;40;3475;-89
2023/07/04 02:57:20;713491.00;2.38;1230.64;85006.00;0.28;147.68;;;;;21.40;1.00;;;;;;2270489;61;1277;-91
2023/07/04 03:09:49;671717.00;2.24;1158.23;85577.00;0.29;148.67;;;;;21.30;1.00;;;;;;2270630;61;1348;-89
2023/07/04 04:27:30;507661.00;1.69;875.01;48133.00;0.16;83.96;;;;;22.30;1.00;;;;;;2270013;61;1353;-91
2023/07/04 05:07:28;422557.00;1.41;728.59;0.00;0.00;0.62;;;;;22.70;1.00;;;;;;2270807;61;1325;-89
2023/07/04 05:57:32;394639.00;1.32;680.59;84496.00;0.28;146.80;;;;;25.10;1.00;;;;;;2270473;61;1381;-90
2023/07/04 07:55:02;713517.00;2.38;1230.69;148.00;0.00;0.88;;;;;28.00;1.00;;;;;;2270149;61;1023;-89
2023/07/04 08:26:07;343801.00;1.15;593.21;0.00;0.00;0.62;;;;;28.40;1.00;;;;;;2504928;40;3561;31
2023/07/04 08:36:04;539137.00;1.80;929.24;0.00;0.00;0.62;;;;;29.20;1.00;;;;;;2270137;61;1011;-92
2023/07/04 08:41:01;254343.00;0.85;439.42;0.00;0.00;0.62;;;;;30.10;1.00;;;;;;2270145;61;1312;-91
2023/07/04 08:45:59;427528.00;1.43;737.13;33110.00;0.11;57.97;;;;;29.50;1.00;;;;;;2270092;61;1294;-91
2023/07/04 09:11:43;424176.00;1.41;731.37;0.00;0.00;0.62;;;;;29.20;1.00;;;;;;2509829;40;3563;31
2023/07/04 09:39:13;400870.00;1.34;691.30;0.00;0.00;0.62;;;;;29.90;1.00;;;;;;2270492;61;1278;-89
2023/07/04 09:41:41;0.00;0.00;0.62;0.00;0.00;0.62;;;;;30.30;1.00;;;;;;2268979;61;2004;-90
2023/07/04 09:44:15;22141.00;0.07;38.98;0.00;0.00;0.62;;;;;30.80;1.00;;;;;;2269020;61;882;-91
2023/07/04 09:49:24;442809.00;1.48;763.41;0.00;0.00;0.62;;;;;30.10;1.00;;;;;;2271052;61;1305;-92
2023/07/04 11:10:13;441743.00;1.47;761.58;76512.00;0.26;133.01;;;;;28.80;1.00;;;;;;2504099;56;3685;31
2023/07/04 11:20:21;400783.00;1.34;691.15;0.00;0.00;0.62;;;;;28.80;1.00;;;;;;2270299;61;1066;-90
2023/07/04 11:25:37;364436.00;1.21;628.67;0.00;0.00;0.62;;;;;28.10;1.00;;;;;;2266083;61;1342;-89
2023/07/04 11:40:49;199423.00;0.66;344.93;0.00;0.00;0.62;;;;;30.00;1.00;;;;;;2266254;61;1033;-92
2023/07/04 12:10:59;439471.00;1.46;757.67;0.00;0.00;0.62;;;;;29.70;1.00;;;;;;2266052;61;1007;-91
2023/07/04 12:13:28;40345.00;0.13;70.49;0.00;0.00;0.62;;;;;29.70;1.00;;;;;;2264513;61;1634;-91
2023/07/04 12:15:57;401387.00;1.34;692.19;0.00;0.00;0.62;;;;;29.20;1.00;;;;;;2264476;61;1672;-91
2023/07/04 12:18:26;272447.00;0.91;470.55;18379.00;0.06;32.46;;;;;28.60;1.00;;;;;;2264428;61;1544;-90
2023/07/04 12:33:35;255097.00;0.85;440.72;0.00;0.00;0.62;;;;;31.20;1.00;;;;;;2270377;61;1305;-90
2023/07/04 12:36:07;334306.00;1.11;576.89;95566.00;0.32;165.92;;;;;31.10;1.00;;;;;;2268450;61;1770;-91
2023/07/04 12:38:41;25038.00;0.08;43.99;0.00;0.00;0.62;;;;;30.90;1.00;;;;;;2268444;61;1628;-90
2023/07/04 12:41:09;146465.00;0.49;253.71;0.00;0.00;0.62;;;;;31.00;1.00;;;;;;2268540;61;1179;-91
2023/07/04 12:43:38;81719.00;0.27;142.01;0.00;0.00;0.62;;;;;30.20;1.00;;;;;;2268471;61;2278;-89
2023/07/04 12:46:10;120447.00;0.40;208.85;0.00;0.00;0.62;;;;;30.40;1.00;;;;;;2268535;61;1642;-90
2023/07/04 12:48:40;114687.00;0.38;198.92;0.00;0.00;0.62;;;;;30.70;1.00;;;;;;2268461;61;1769;-90
2023/07/04 12:53:38;276487.00;0.92;477.50;0.00;0.00;0.62;;;;;31.00;1.00;;;;;;2270486;61;1322;-89
2023/07/04 12:56:09;87579.00;0.29;152.13;0.00;0.00;0.62;;;;;30.60;1.00;;;;;;2268434;61;1759;-93
2023/07/04 13:06:20;517225.00;1.72;891.49;0.00;0.00;0.62;;;;;30.60;1.00;;;;;;2269768;61;1205;-90
2023/07/04 16:07:08;335661.00;1.12;579.22;0.00;0.00;0.62;;;;;30.20;1.00;;;;;;2270644;61;1258;-91
2023/07/04 16:18:20;770892.00;2.57;1330.41;78998.00;0.26;137.31;;;;;30.90;1.00;;;;;;2395001;39;3904;-86
2023/07/04 16:26:28;287583.00;0.96;496.57;0.00;0.00;0.62;;;;;30.70;1.00;;;;;;2294449;60;1447;-88
2023/07/04 17:13:07;383599.00;1.28;661.61;0.00;0.00;0.62;;;;;29.50;1.00;;;;;;2409243;40;3268;31
2023/07/04 19:45:49;201689.00;0.67;348.83;0.00;0.00;0.62;;;;;26.00;1.00;;;;;;2419934;40;3188;31
2023/07/04 19:56:03;428825.00;1.43;739.37;0.00;0.00;0.62;;;;;25.80;1.00;;;;;;2270024;61;1004;-90
2023/07/04 19:58:30;86225.00;0.29;149.79;0.00;0.00;0.62;;;;;25.80;1.00;;;;;;2268179;61;1912;-90
2023/07/04 20:49:23;353132.00;1.18;609.24;74843.00;0.25;130.13;;;;;25.90;1.00;;;;;;2265326;61;1367;-85
2023/07/04 20:51:50;257653.00;0.86;445.11;78510.00;0.26;136.46;;;;;25.90;1.00;;;;;;2263786;61;1129;-88
2023/07/04 20:54:17;450845.00;1.50;777.24;176209.00;0.59;304.96;;;;;25.90;1.00;;;;;;2263679;61;1712;-88
2023/07/04 20:56:45;117835608.00;392.79;66276952.00;131452.00;0.44;227.83;;;;;25.90;1.00;;;;;;2263679;61;1657;-89
2023/07/04 20:59:12;385692.00;1.29;665.21;65698.00;0.22;114.33;;;;;25.80;1.00;;;;;;2259652;61;1711;-87
2023/07/04 21:01:39;263254.00;0.88;454.74;74156.00;0.25;128.94;;;;;25.60;1.00;;;;;;2259715;61;1689;-86
2023/07/04 21:04:06;213402.00;0.71;368.99;74286.00;0.25;129.17;;;;;25.30;1.00;;;;;;2259577;61;1529;-87
2023/07/04 21:06:37;214068.00;0.71;370.14;93456.00;0.31;162.27;;;;;25.40;1.00;;;;;;2259705;61;2023;-86
2023/07/04 21:09:15;307130.00;1.02;530.18;84143.00;0.28;146.19;;;;;25.30;1.00;;;;;;2259673;61;1427;-86
2023/07/04 21:11:43;342874.00;1.14;591.61;76709.00;0.26;133.35;;;;;25.30;1.00;;;;;;2259964;61;1710;-87
2023/07/04 21:14:09;265530.00;0.89;458.66;80445.00;0.27;139.81;;;;;25.30;1.00;;;;;;2260426;61;1148;-87
2023/07/04 21:16:36;245002.00;0.82;423.35;80073.00;0.27;139.16;;;;;25.10;1.00;;;;;;2260395;61;1410;-88
2023/07/04 21:19:03;569813.00;1.90;982.12;122552.00;0.41;212.48;;;;;25.20;1.00;;;;;;2260319;61;1658;-85
2023/07/04 21:21:31;364573.00;1.22;628.91;79065.00;0.26;137.42;;;;;25.20;1.00;;;;;;2260297;61;1483;-88
2023/07/04 21:23:59;294519.00;0.98;508.50;76057.00;0.25;132.23;;;;;25.10;1.00;;;;;;2260357;61;1169;-88
2023/07/04 21:26:29;443243.00;1.48;764.16;164147.00;0.55;284.18;;;;;24.90;1.00;;;;;;2260335;61;1924;-88
2023/07/04 21:28:58;367472.00;1.22;633.89;73475.00;0.24;127.76;;;;;24.90;1.00;;;;;;2260301;61;1636;-86
2023/07/04 21:31:25;494878.00;1.65;853.01;85010.00;0.28;147.69;;;;;24.90;1.00;;;;;;2260423;61;912;-86
2023/07/04 21:33:54;499861.00;1.67;861.58;80685.00;0.27;140.22;;;;;24.60;1.00;;;;;;2260310;61;1754;-88
2023/07/04 21:36:21;408384.00;1.36;704.22;96311.00;0.32;167.20;;;;;24.80;1.00;;;;;;2260264;61;1100;-88
2023/07/04 21:38:48;422351.00;1.41;728.23;76501.00;0.26;132.99;;;;;24.50;1.00;;;;;;2260182;61;1723;-88
2023/07/04 21:41:17;312625.00;1.04;539.62;76670.00;0.26;133.28;;;;;24.50;1.00;;;;;;2260367;61;1122;-87
2023/07/04 21:43:44;417109.00;1.39;719.22;79556.00;0.27;138.27;;;;;24.20;1.00;;;;;;2260326;61;916;-89
2023/07/04 21:46:11;501617.00;1.67;864.61;150824.00;0.50;261.23;;;;;24.20;1.00;;;;;;2260368;61;1912;-87
2023/07/04 21:48:39;414454.00;1.38;714.65;130008.00;0.43;225.34;;;;;24.10;1.00;;;;;;2260234;61;1729;-89
2023/07/04 21:51:08;118458288.00;394.86;67334152.00;86255.00;0.29;149.84;;;;;24.10;1.00;;;;;;2260249;61;925;-87
2023/07/04 21:53:35;514057.00;1.71;886.03;82355.00;0.27;143.11;;;;;24.30;1.00;;;;;;2260182;61;1813;-87
2023/07/04 21:56:03;443812.00;1.48;765.14;86138.00;0.29;149.64;;;;;24.40;1.00;;;;;;2260251;61;1636;-86
2023/07/04 21:58:31;457908.00;1.53;789.39;76217.00;0.25;132.50;;;;;24.50;1.00;;;;;;2260202;61;1733;-87
2023/07/04 22:01:02;611795.00;2.04;1054.59;76583.00;0.26;133.13;;;;;24.30;1.00;;;;;;2260132;61;1679;-85
2023/07/04 22:03:31;578892.00;1.93;997.79;121363.00;0.40;210.43;;;;;24.20;1.00;;;;;;2260242;61;1210;-87
2023/07/04 22:06:03;470738.00;1.57;811.46;76707.00;0.26;133.35;;;;;24.30;1.00;;;;;;2260317;61;1983;-86
2023/07/04 22:08:30;217216.00;0.72;375.55;10389.00;0.03;18.62;;;;;24.50;1.00;;;;;;2260190;61;1374;-88
2023/07/04 22:10:58;217583.00;0.73;376.18;0.00;0.00;0.62;;;;;24.20;1.00;;;;;;2260207;61;1595;-90
2023/07/04 22:13:27;162139.00;0.54;280.72;0.00;0.00;0.62;;;;;24.10;1.00;;;;;;2260326;61;897;-88
2023/07/04 22:15:55;255484.00;0.85;441.38;0.00;0.00;0.62;;;;;24.20;1.00;;;;;;2260267;61;1772;-86
2023/07/04 22:18:22;211413.00;0.70;365.57;0.00;0.00;0.62;;;;;23.90;1.00;;;;;;2260234;61;1381;-87
2023/07/04 22:20:49;216497.00;0.72;374.32;0.00;0.00;0.62;;;;;23.60;1.00;;;;;;2260285;61;1175;-89
2023/07/04 22:23:16;375922.00;1.25;648.42;23795.00;0.08;41.84;;;;;23.80;1.00;;;;;;2260296;61;926;-85
2023/07/04 22:25:43;190993.00;0.64;330.42;0.00;0.00;0.62;;;;;23.90;1.00;;;;;;2260162;61;1936;-87
2023/07/04 22:28:10;238446.00;0.79;412.08;0.00;0.00;0.62;;;;;23.50;1.00;;;;;;2260231;61;1409;-88
2023/07/04 22:30:37;139913.00;0.47;242.42;0.00;0.00;0.62;;;;;23.50;1.00;;;;;;2260114;61;1125;-88
2023/07/04 22:33:06;369451.00;1.23;637.29;77900.00;0.26;135.41;;;;;23.50;1.00;;;;;;2260232;61;993;-87
2023/07/04 22:35:35;373732.00;1.25;644.65;77937.00;0.26;135.47;;;;;23.50;1.00;;;;;;2260163;61;1141;-88
2023/07/04 22:38:02;233773.00;0.78;404.04;0.00;0.00;0.62;;;;;23.20;1.00;;;;;;2260089;61;2016;-87
2023/07/04 22:40:29;394350.00;1.31;680.09;79634.00;0.27;138.41;;;;;23.10;1.00;;;;;;2260238;61;921;-87
2023/07/04 22:42:56;383411.00;1.28;661.29;89734.00;0.30;155.85;;;;;23.30;1.00;;;;;;2260195;61;1149;-89
2023/07/04 22:45:23;406397.00;1.35;700.80;69183.00;0.23;120.35;;;;;23.20;1.00;;;;;;2260157;61;1993;-87
2023/07/04 22:47:56;419811.00;1.40;723.87;76950.00;0.26;133.77;;;;;23.20;1.00;;;;;;2260056;61;1419;-89
2023/07/04 22:50:24;336703.00;1.12;581.01;50624.00;0.17;88.27;;;;;23.20;1.00;;;;;;2260123;61;1043;-88
2023/07/04 22:52:51;160232.00;0.53;277.44;0.00;0.00;0.62;;;;;23.00;1.00;;;;;;2260170;61;922;-87
2023/07/04 22:55:18;253244.00;0.84;437.53;0.00;0.00;0.62;;;;;23.00;1.00;;;;;;2260114;61;1701;-89
2023/07/04 22:57:45;189447.00;0.63;327.76;0.00;0.00;0.62;;;;;23.10;1.00;;;;;;2260166;61;1335;-87
2023/07/04 23:00:13;99602.00;0.33;172.88;0.00;0.00;0.62;;;;;23.20;1.00;;;;;;2260108;61;1128;-87
2023/07/04 23:02:40;185694.00;0.62;321.29;0.00;0.00;0.62;;;;;23.10;1.00;;;;;;2260201;61;1023;-87
2023/07/04 23:05:08;315042.00;1.05;543.78;81649.00;0.27;141.89;;;;;23.00;1.00;;;;;;2259552;61;2411;-87
2023/07/04 23:07:36;437640.00;1.46;754.52;80465.00;0.27;139.84;;;;;22.90;1.00;;;;;;2260121;61;2108;-90
2023/07/04 23:10:04;428506.00;1.43;738.82;2487.00;0.01;4.93;;;;;22.90;1.00;;;;;;2259994;61;1033;-87
2023/07/04 23:12:31;242162.00;0.81;418.47;0.00;0.00;0.62;;;;;23.00;1.00;;;;;;2260090;61;2144;-86
2023/07/04 23:14:58;383354.00;1.28;661.19;0.00;0.00;0.62;;;;;22.90;1.00;;;;;;2259939;61;1744;-85
2023/07/04 23:17:27;286385.00;0.95;494.51;0.00;0.00;0.62;;;;;22.60;1.00;;;;;;2259965;61;1386;-87
2023/07/04 23:19:54;209126.00;0.70;361.63;0.00;0.00;0.62;;;;;22.40;1.00;;;;;;2260079;61;1190;-88
2023/07/04 23:22:21;535877.00;1.79;923.62;44885.00;0.15;78.34;;;;;22.60;1.00;;;;;;2260013;61;1739;-86
2023/07/04 23:24:50;286596.00;0.96;494.88;0.00;0.00;0.62;;;;;22.40;1.00;;;;;;2260092;61;1708;-90
2023/07/04 23:27:17;466552.00;1.56;804.26;0.00;0.00;0.62;;;;;22.30;1.00;;;;;;2260048;61;1930;-88
2023/07/04 23:29:44;227706.00;0.76;393.60;0.00;0.00;0.62;;;;;22.20;1.00;;;;;;2260028;61;1761;-89
2023/07/04 23:32:11;155428.00;0.52;269.16;0.00;0.00;0.62;;;;;22.30;1.00;;;;;;2259902;61;2309;-87
2023/07/04 23:34:37;457004.00;1.52;787.83;82907.00;0.28;144.06;;;;;22.10;1.00;;;;;;2259927;61;986;-89
2023/07/04 23:37:05;362258.00;1.21;624.93;77195.00;0.26;134.19;;;;;22.20;1.00;;;;;;2260004;61;1428;-89
2023/07/04 23:39:32;405141.00;1.35;698.64;83621.00;0.28;145.29;;;;;22.40;1.00;;;;;;2259991;61;2465;-87
2023/07/04 23:42:00;515764.00;1.72;888.97;82984.00;0.28;144.19;;;;;22.30;1.00;;;;;;2267844;56;3812;-85
2023/07/04 23:44:28;340499.00;1.13;587.53;87385.00;0.29;151.79;;;;;22.20;1.00;;;;;;2268000;61;1540;-86
2023/07/04 23:46:55;295309.00;0.98;509.86;0.00;0.00;0.62;;;;;22.20;1.00;;;;;;2268004;61;1925;-87
2023/07/04 23:49:22;529400.00;1.76;912.46;56403.00;0.19;98.26;;;;;21.90;1.00;;;;;;2267941;61;1500;-87
2023/07/04 23:51:49;290139.00;0.97;500.97;0.00;0.00;0.62;;;;;22.00;1.00;;;;;;2267947;61;1067;-89
2023/07/04 23:54:16;331219.00;1.10;571.58;0.00;0.00;0.62;;;;;22.00;1.00;;;;;;2267999;61;1684;-87
2023/07/04 23:56:43;406198.00;1.35;700.46;38842.00;0.13;67.88;;;;;21.90;1.00;;;;;;2268027;61;1040;-87
2023/07/04 23:59:12;465337.00;1.55;802.17;81102.00;0.27;140.94;;;;;21.80;1.00;;;;;;2267890;61;1209;-87
